Time;durP1;ratioP1;P1;durP2;ratioP2;P2;SDS_P1;SDS_P2;PMS_P1;PMS_P2;Temp;Humidity;BMP_temperature;BMP_pressure;BME280_temperature;BME280_humidity;BME280_pressure;Samples;Min_cycle;Max_cycle;Signal;HPM_P1;HPM_P2
2022/12/31 00:01:12;;;;;;;14.75;8.40;;;;;;;;;;4989764;28;20026;-44
2022/12/31 00:03:38;;;;;;;17.23;8.48;;;;;;;;;;4988663;28;20525;-46
2022/12/31 00:06:20;;;;;;;12.05;8.80;;;;;;;;;;4990853;28;20038;-44
2022/12/31 00:08:46;;;;;;;21.45;9.80;;;;;;;;;;4987200;28;20035;-47
2022/12/31 00:11:12;;;;;;;12.27;9.40;;;;;;;;;;4990435;28;20545;-44
2022/12/31 00:13:38;;;;;;;17.75;8.98;;;;;;;;;;4990523;28;20046;-45
2022/12/31 00:16:12;;;;;;;21.33;8.82;;;;;;;;;;4989725;28;20022;-45
2022/12/31 00:18:38;;;;;;;13.68;8.73;;;;;;;;;;4989506;28;21954;-44
2022/12/31 00:21:06;;;;;;;12.75;7.90;;;;;;;;;;4989975;28;20018;-48
2022/12/31 00:23:31;;;;;;;23.20;8.68;;;;;;;;;;4988706;28;20092;-46
2022/12/31 00:26:08;;;;;;;16.65;7.38;;;;;;;;;;4989594;28;20022;-43
2022/12/31 00:28:35;;;;;;;9.70;6.20;;;;;;;;;;4985654;28;20513;-44
2022/12/31 00:31:13;;;;;;;12.90;6.82;;;;;;;;;;4989588;28;20117;-44
2022/12/31 00:33:39;;;;;;;15.10;6.95;;;;;;;;;;4989277;28;20121;-45
2022/12/31 00:36:04;;;;;;;16.35;7.35;;;;;;;;;;4990134;28;20556;-45
2022/12/31 00:38:29;;;;;;;10.10;6.93;;;;;;;;;;4987967;28;20054;-44
2022/12/31 00:40:55;;;;;;;16.73;7.45;;;;;;;;;;4989444;28;20030;-44
2022/12/31 00:43:20;;;;;;;12.98;6.88;;;;;;;;;;4988338;28;20034;-47
2022/12/31 00:45:46;;;;;;;13.88;7.30;;;;;;;;;;4990004;28;20124;-46
2022/12/31 00:48:11;;;;;;;16.77;7.38;;;;;;;;;;4988994;28;22408;-44
2022/12/31 00:50:36;;;;;;;14.10;6.82;;;;;;;;;;4990025;28;20145;-45
2022/12/31 00:53:02;;;;;;;12.48;6.50;;;;;;;;;;4988563;28;20041;-48
2022/12/31 00:55:29;;;;;;;14.40;6.72;;;;;;;;;;4989607;28;20500;-45
2022/12/31 00:57:54;;;;;;;19.42;7.28;;;;;;;;;;4989213;28;20043;-46
2022/12/31 01:00:21;;;;;;;9.98;6.97;;;;;;;;;;4989130;28;20101;-45
2022/12/31 01:02:46;;;;;;;10.05;6.15;;;;;;;;;;4988167;28;20042;-48
2022/12/31 01:05:12;;;;;;;13.13;7.40;;;;;;;;;;4989395;28;20764;-44
2022/12/31 01:07:37;;;;;;;14.13;7.50;;;;;;;;;;4990441;28;20113;-46
2022/12/31 01:10:03;;;;;;;13.70;7.47;;;;;;;;;;4988574;28;20376;-44
2022/12/31 01:12:29;;;;;;;16.30;7.10;;;;;;;;;;4987833;28;20069;-45
2022/12/31 01:14:54;;;;;;;11.80;6.97;;;;;;;;;;4986606;28;20459;-44
2022/12/31 01:17:19;;;;;;;11.65;7.40;;;;;;;;;;4988851;28;20053;-44
2022/12/31 01:19:45;;;;;;;13.25;7.30;;;;;;;;;;4989715;28;20077;-44
2022/12/31 01:22:10;;;;;;;14.80;7.30;;;;;;;;;;4988592;28;20038;-44
2022/12/31 01:24:35;;;;;;;10.70;7.13;;;;;;;;;;4989310;28;20057;-44
2022/12/31 01:27:01;;;;;;;12.05;6.85;;;;;;;;;;4988897;28;20039;-44
2022/12/31 01:29:26;;;;;;;14.07;7.00;;;;;;;;;;4989142;28;20064;-45
2022/12/31 01:31:52;;;;;;;20.92;6.80;;;;;;;;;;4987417;28;20046;-44
2022/12/31 01:34:17;;;;;;;13.65;6.65;;;;;;;;;;4985431;28;20097;-44
2022/12/31 01:36:42;;;;;;;12.10;6.13;;;;;;;;;;4987327;28;20038;-44
2022/12/31 01:39:08;;;;;;;12.23;6.90;;;;;;;;;;4987218;28;20046;-47
2022/12/31 01:41:43;;;;;;;17.33;6.85;;;;;;;;;;4988932;28;20030;-45
2022/12/31 01:44:12;;;;;;;13.02;6.90;;;;;;;;;;4987591;28;20053;-44
2022/12/31 01:46:40;;;;;;;14.38;6.35;;;;;;;;;;4987429;28;20026;-44
2022/12/31 01:49:15;;;;;;;9.23;6.00;;;;;;;;;;4987705;28;20048;-44
2022/12/31 01:51:44;;;;;;;18.02;6.68;;;;;;;;;;4986658;28;20391;-44
2022/12/31 01:54:11;;;;;;;14.30;6.22;;;;;;;;;;4987688;28;20031;-47
2022/12/31 01:56:38;;;;;;;9.98;5.60;;;;;;;;;;4988593;28;20043;-44
2022/12/31 01:59:06;;;;;;;7.68;5.15;;;;;;;;;;4988484;28;20042;-46
2022/12/31 02:01:32;;;;;;;8.07;5.45;;;;;;;;;;4988561;28;20061;-44
2022/12/31 02:04:02;;;;;;;11.93;6.90;;;;;;;;;;4986771;28;20485;-44
2022/12/31 02:06:33;;;;;;;13.73;5.80;;;;;;;;;;4987381;28;20034;-46
2022/12/31 02:08:59;;;;;;;13.35;5.85;;;;;;;;;;4968421;28;20058;-45
2022/12/31 02:11:33;;;;;;;11.05;5.88;;;;;;;;;;4970981;28;20102;-44
2022/12/31 02:14:02;;;;;;;12.80;6.57;;;;;;;;;;4986132;28;20053;-44
2022/12/31 02:16:49;;;;;;;16.38;5.78;;;;;;;;;;4987500;28;20045;-48
2022/12/31 02:19:34;;;;;;;12.57;5.43;;;;;;;;;;4986487;28;20065;-46
2022/12/31 02:22:37;;;;;;;13.27;6.28;;;;;;;;;;4988245;28;20491;-45
2022/12/31 02:25:17;;;;;;;7.10;5.55;;;;;;;;;;4987361;28;20030;-45
2022/12/31 02:28:03;;;;;;;12.73;5.40;;;;;;;;;;4987121;28;20074;-44
2022/12/31 02:30:31;;;;;;;10.20;4.93;;;;;;;;;;4991882;28;20112;-46
2022/12/31 02:33:02;;;;;;;6.53;5.13;;;;;;;;;;4992453;28;20038;-44
2022/12/31 02:35:48;;;;;;;8.82;4.68;;;;;;;;;;4991930;28;20595;-45
2022/12/31 02:38:19;;;;;;;10.00;5.57;;;;;;;;;;4991410;28;20042;-44
2022/12/31 02:40:46;;;;;;;13.13;5.25;;;;;;;;;;4992197;28;20032;-44
2022/12/31 02:43:11;;;;;;;11.13;5.20;;;;;;;;;;4989544;28;20042;-44
2022/12/31 02:45:41;;;;;;;10.60;5.10;;;;;;;;;;4989638;28;20066;-44
2022/12/31 02:48:07;;;;;;;12.15;5.35;;;;;;;;;;4989336;28;20485;-48
2022/12/31 02:50:38;;;;;;;8.13;4.93;;;;;;;;;;4992544;28;20026;-46
2022/12/31 02:53:57;;;;;;;9.48;5.38;;;;;;;;;;4989403;28;20563;-44
2022/12/31 02:56:37;;;;;;;7.57;4.65;;;;;;;;;;4956966;28;20063;-47
2022/12/31 03:02:15;;;;;;;11.95;4.68;;;;;;;;;;4946926;28;20067;-47
2022/12/31 03:04:54;;;;;;;10.10;5.05;;;;;;;;;;4955573;28;20533;-43
2022/12/31 03:07:23;;;;;;;5.78;4.75;;;;;;;;;;4938557;28;20084;-43
2022/12/31 03:09:49;;;;;;;11.10;4.88;;;;;;;;;;4913427;29;20073;-47
2022/12/31 03:14:59;;;;;;;8.95;5.10;;;;;;;;;;4910025;29;20078;-45
2022/12/31 03:17:24;;;;;;;9.68;4.70;;;;;;;;;;4914880;28;20052;-44
2022/12/31 03:22:39;;;;;;;6.75;3.88;;;;;;;;;;4919584;29;20047;-49
2022/12/31 03:27:54;;;;;;;6.80;3.85;;;;;;;;;;4929832;29;20139;-45
2022/12/31 03:30:21;;;;;;;8.00;4.20;;;;;;;;;;4964815;28;20681;-44
2022/12/31 03:32:47;;;;;;;8.27;4.28;;;;;;;;;;4988744;28;20502;-44
2022/12/31 03:35:15;;;;;;;7.63;3.97;;;;;;;;;;4990753;28;20035;-48
2022/12/31 03:37:42;;;;;;;7.40;3.70;;;;;;;;;;4991433;28;20030;-46
2022/12/31 03:40:10;;;;;;;4.10;3.47;;;;;;;;;;4989710;28;20124;-46
2022/12/31 03:42:36;;;;;;;9.75;4.43;;;;;;;;;;4990551;28;20035;-45
2022/12/31 03:45:01;;;;;;;7.43;3.42;;;;;;;;;;4989121;28;20106;-44
2022/12/31 03:47:27;;;;;;;6.30;3.83;;;;;;;;;;4990559;28;20050;-44
2022/12/31 03:49:52;;;;;;;8.02;3.85;;;;;;;;;;4990871;28;20037;-44
2022/12/31 03:52:18;;;;;;;4.32;3.45;;;;;;;;;;4988523;28;20048;-44
2022/12/31 03:54:43;;;;;;;7.68;3.60;;;;;;;;;;4990648;28;20022;-44
2022/12/31 03:57:09;;;;;;;9.40;3.50;;;;;;;;;;4990481;28;20073;-44
2022/12/31 03:59:34;;;;;;;4.68;3.40;;;;;;;;;;4991341;28;20383;-44
2022/12/31 04:02:00;;;;;;;11.25;4.22;;;;;;;;;;4991220;28;20046;-44
2022/12/31 04:04:25;;;;;;;5.32;3.38;;;;;;;;;;4990841;28;20113;-43
2022/12/31 04:06:50;;;;;;;5.70;3.70;;;;;;;;;;4988625;28;20035;-45
2022/12/31 04:09:16;;;;;;;7.47;3.65;;;;;;;;;;4989927;28;20030;-46
2022/12/31 04:11:41;;;;;;;4.90;3.53;;;;;;;;;;4987373;28;20523;-43
2022/12/31 04:14:07;;;;;;;7.55;3.40;;;;;;;;;;4989038;28;20033;-47
2022/12/31 04:16:32;;;;;;;7.63;3.58;;;;;;;;;;4990048;28;20550;-46
2022/12/31 04:18:58;;;;;;;4.95;3.83;;;;;;;;;;4990647;28;20396;-44
2022/12/31 04:21:23;;;;;;;10.57;4.07;;;;;;;;;;4990397;28;20100;-44
2022/12/31 04:23:49;;;;;;;4.47;3.10;;;;;;;;;;4989833;28;20042;-45
2022/12/31 04:26:14;;;;;;;10.75;3.92;;;;;;;;;;4989514;28;20494;-44
2022/12/31 04:28:40;;;;;;;6.72;3.35;;;;;;;;;;4989096;28;20503;-49
2022/12/31 04:31:05;;;;;;;9.57;4.18;;;;;;;;;;4987026;28;20026;-46
2022/12/31 04:33:30;;;;;;;6.18;3.20;;;;;;;;;;4990334;28;20054;-46
2022/12/31 04:36:03;;;;;;;10.18;3.55;;;;;;;;;;4988969;28;20023;-44
2022/12/31 04:38:29;;;;;;;8.63;3.35;;;;;;;;;;4988392;28;20642;-44
2022/12/31 04:43:38;;;;;;;9.43;3.40;;;;;;;;;;4988764;28;20053;-44
2022/12/31 04:46:04;;;;;;;6.18;3.50;;;;;;;;;;4989029;28;20026;-47
2022/12/31 04:48:29;;;;;;;4.53;3.38;;;;;;;;;;4989805;28;20050;-44
2022/12/31 04:50:55;;;;;;;5.22;3.75;;;;;;;;;;4989005;28;20187;-44
2022/12/31 04:53:20;;;;;;;8.73;3.80;;;;;;;;;;4990857;28;20076;-44
2022/12/31 04:55:45;;;;;;;4.85;3.70;;;;;;;;;;4988431;28;20034;-44
2022/12/31 04:58:11;;;;;;;5.43;3.97;;;;;;;;;;4989635;28;20034;-45
2022/12/31 05:00:36;;;;;;;5.60;3.67;;;;;;;;;;4989696;28;20027;-48
2022/12/31 05:03:02;;;;;;;5.32;3.72;;;;;;;;;;4989388;28;20522;-44
2022/12/31 05:05:27;;;;;;;14.35;4.05;;;;;;;;;;4985224;28;20125;-45
2022/12/31 05:07:52;;;;;;;5.95;3.97;;;;;;;;;;4988565;28;20046;-44
2022/12/31 05:10:18;;;;;;;7.75;4.13;;;;;;;;;;4989397;28;20087;-44
2022/12/31 05:12:43;;;;;;;5.20;3.78;;;;;;;;;;4988541;28;20034;-45
2022/12/31 05:15:08;;;;;;;10.23;4.00;;;;;;;;;;4987583;28;20479;-50
2022/12/31 05:17:34;;;;;;;13.15;4.30;;;;;;;;;;4988260;28;20039;-48
2022/12/31 05:19:59;;;;;;;13.35;4.03;;;;;;;;;;4988965;28;20121;-47
2022/12/31 05:22:27;;;;;;;12.75;4.30;;;;;;;;;;4986209;28;20036;-44
2022/12/31 05:24:53;;;;;;;9.95;4.05;;;;;;;;;;4989123;28;20045;-44
2022/12/31 05:27:18;;;;;;;6.22;3.70;;;;;;;;;;4983530;28;20042;-45
2022/12/31 05:29:43;;;;;;;10.07;3.65;;;;;;;;;;4988974;28;20076;-45
2022/12/31 05:32:09;;;;;;;10.30;4.95;;;;;;;;;;4988803;28;20030;-44
2022/12/31 05:34:34;;;;;;;8.00;3.55;;;;;;;;;;4987008;28;20042;-44
2022/12/31 05:37:00;;;;;;;10.48;4.43;;;;;;;;;;4987489;28;20089;-43
2022/12/31 05:39:25;;;;;;;5.78;2.97;;;;;;;;;;4989100;28;20488;-44
2022/12/31 05:41:50;;;;;;;4.15;3.53;;;;;;;;;;4987688;28;20157;-44
2022/12/31 05:44:16;;;;;;;4.63;3.47;;;;;;;;;;4988278;28;20027;-44
2022/12/31 05:46:41;;;;;;;9.63;3.75;;;;;;;;;;4983512;28;20034;-44
2022/12/31 05:49:06;;;;;;;7.65;3.45;;;;;;;;;;4989115;28;20077;-44
2022/12/31 05:51:32;;;;;;;6.70;2.72;;;;;;;;;;4988308;28;20038;-44
2022/12/31 05:53:57;;;;;;;7.00;2.80;;;;;;;;;;4988360;28;20031;-44
2022/12/31 05:56:22;;;;;;;5.72;2.78;;;;;;;;;;4987793;28;20038;-44
2022/12/31 05:58:48;;;;;;;8.38;2.80;;;;;;;;;;4988432;28;20046;-45
2022/12/31 06:01:13;;;;;;;6.18;2.85;;;;;;;;;;4988333;28;20022;-46
2022/12/31 06:03:40;;;;;;;7.45;2.72;;;;;;;;;;4987878;28;20046;-46
2022/12/31 06:06:06;;;;;;;8.50;4.00;;;;;;;;;;4987341;28;20018;-45
2022/12/31 06:08:32;;;;;;;8.63;3.42;;;;;;;;;;4986837;28;20115;-44
2022/12/31 06:10:57;;;;;;;4.28;3.00;;;;;;;;;;4988875;28;20534;-44
2022/12/31 06:13:23;;;;;;;8.90;3.30;;;;;;;;;;4988596;28;20051;-47
2022/12/31 06:15:48;;;;;;;9.18;2.83;;;;;;;;;;4987960;28;20391;-44
2022/12/31 06:18:14;;;;;;;10.63;3.25;;;;;;;;;;4987485;28;20054;-44
2022/12/31 06:20:39;;;;;;;5.50;3.10;;;;;;;;;;4988509;28;20031;-45
2022/12/31 06:23:05;;;;;;;7.70;3.55;;;;;;;;;;4988264;28;20042;-44
2022/12/31 06:25:30;;;;;;;4.07;3.33;;;;;;;;;;4987428;28;20091;-44
2022/12/31 06:27:56;;;;;;;8.57;3.25;;;;;;;;;;4986710;28;20074;-44
2022/12/31 06:30:21;;;;;;;4.28;3.60;;;;;;;;;;4987432;28;20041;-42
2022/12/31 06:32:46;;;;;;;9.70;3.65;;;;;;;;;;4987194;28;20581;-44
2022/12/31 06:35:12;;;;;;;7.07;4.00;;;;;;;;;;4987652;28;20030;-44
2022/12/31 06:37:37;;;;;;;8.38;3.83;;;;;;;;;;4985783;28;20042;-44
2022/12/31 06:40:03;;;;;;;8.50;3.80;;;;;;;;;;4988077;28;20088;-44
2022/12/31 06:42:29;;;;;;;7.95;5.35;;;;;;;;;;4987156;28;20046;-44
2022/12/31 06:44:56;;;;;;;9.57;4.65;;;;;;;;;;4986241;28;20117;-43
2022/12/31 06:47:21;;;;;;;6.72;4.30;;;;;;;;;;4986263;28;20121;-46
2022/12/31 06:49:47;;;;;;;8.48;4.65;;;;;;;;;;4986455;28;20153;-44
2022/12/31 06:52:12;;;;;;;9.77;4.35;;;;;;;;;;4987064;28;20034;-45
2022/12/31 06:54:38;;;;;;;8.07;3.85;;;;;;;;;;4987373;28;20050;-44
2022/12/31 06:57:03;;;;;;;10.07;3.83;;;;;;;;;;4986241;28;20411;-44
2022/12/31 06:59:30;;;;;;;9.23;4.07;;;;;;;;;;4987184;28;20038;-49
2022/12/31 07:02:11;;;;;;;6.63;3.83;;;;;;;;;;4988024;28;20034;-46
2022/12/31 07:04:48;;;;;;;5.63;3.50;;;;;;;;;;4987928;28;20031;-44
2022/12/31 07:07:32;;;;;;;5.68;3.05;;;;;;;;;;4984892;28;20510;-45
2022/12/31 07:10:07;;;;;;;7.03;3.28;;;;;;;;;;4984369;28;20047;-44
2022/12/31 07:12:50;;;;;;;5.55;2.75;;;;;;;;;;4987776;28;20542;-48
2022/12/31 07:15:52;;;;;;;6.72;3.50;;;;;;;;;;4987574;28;20503;-45
2022/12/31 07:18:21;;;;;;;8.60;3.55;;;;;;;;;;4985722;28;20104;-45
2022/12/31 07:20:47;;;;;;;5.82;3.17;;;;;;;;;;4986993;28;20034;-47
2022/12/31 07:23:12;;;;;;;4.70;3.40;;;;;;;;;;4984317;28;20038;-44
2022/12/31 07:25:43;;;;;;;10.43;5.28;;;;;;;;;;4987433;28;20041;-43
2022/12/31 07:28:27;;;;;;;12.10;5.53;;;;;;;;;;4984357;28;20042;-45
2022/12/31 07:31:43;;;;;;;5.60;4.72;;;;;;;;;;4988477;28;20371;-44
2022/12/31 07:34:38;;;;;;;8.52;4.72;;;;;;;;;;4962910;28;20102;-43
2022/12/31 07:37:16;;;;;;;14.70;4.72;;;;;;;;;;4963003;28;20549;-44
2022/12/31 07:39:53;;;;;;;7.72;4.47;;;;;;;;;;4966031;28;20039;-44
2022/12/31 07:42:28;;;;;;;7.25;5.03;;;;;;;;;;4965008;28;20047;-44
2022/12/31 07:45:02;;;;;;;7.97;4.50;;;;;;;;;;4965183;28;20035;-45
2022/12/31 07:47:28;;;;;;;11.85;5.07;;;;;;;;;;4962811;28;20137;-43
2022/12/31 07:49:54;;;;;;;8.77;5.10;;;;;;;;;;4965216;28;20114;-44
2022/12/31 07:52:20;;;;;;;8.38;5.30;;;;;;;;;;4965073;28;20102;-44
2022/12/31 07:54:46;;;;;;;6.47;4.32;;;;;;;;;;4964487;28;20080;-44
2022/12/31 07:57:13;;;;;;;10.50;5.25;;;;;;;;;;4963940;28;20034;-46
2022/12/31 07:59:48;;;;;;;8.05;4.78;;;;;;;;;;4964466;28;20053;-45
2022/12/31 08:02:45;;;;;;;12.57;5.20;;;;;;;;;;4965371;28;20527;-44
2022/12/31 08:05:25;;;;;;;7.82;4.72;;;;;;;;;;4906073;29;20052;-45
2022/12/31 08:07:56;;;;;;;9.57;4.70;;;;;;;;;;4907302;29;20044;-45
2022/12/31 08:10:38;;;;;;;10.98;4.90;;;;;;;;;;4912406;29;20047;-46
2022/12/31 08:13:08;;;;;;;7.82;4.57;;;;;;;;;;4926929;28;20524;-44
2022/12/31 08:15:36;;;;;;;14.50;5.65;;;;;;;;;;4924413;29;20107;-49
2022/12/31 08:18:02;;;;;;;18.52;9.15;;;;;;;;;;4925245;29;20054;-44
2022/12/31 08:20:30;;;;;;;8.77;5.47;;;;;;;;;;4929542;29;20035;-44
2022/12/31 08:23:04;;;;;;;10.75;5.70;;;;;;;;;;4929845;29;20091;-44
2022/12/31 08:26:04;;;;;;;12.98;6.05;;;;;;;;;;4927034;29;20042;-46
2022/12/31 08:28:54;;;;;;;13.23;6.15;;;;;;;;;;4888246;29;20128;-44
2022/12/31 08:31:44;;;;;;;10.43;5.82;;;;;;;;;;4892128;29;20040;-45
2022/12/31 08:34:32;;;;;;;8.32;5.70;;;;;;;;;;4883703;29;20090;-44
2022/12/31 08:37:16;;;;;;;9.10;5.45;;;;;;;;;;4858720;29;20523;-44
2022/12/31 08:39:54;;;;;;;11.82;6.20;;;;;;;;;;4858253;29;20049;-42
2022/12/31 08:42:29;;;;;;;8.27;5.38;;;;;;;;;;4881845;29;20136;-45
2022/12/31 08:45:21;;;;;;;7.50;5.15;;;;;;;;;;4901709;29;20043;-44
2022/12/31 08:47:47;;;;;;;;;;;;;;;;;;4900196;29;20130;-45
2022/12/31 08:50:17;;;;;;;8.43;5.07;;;;;;;;;;4896798;29;20328;-44
2022/12/31 08:52:43;;;;;;;9.77;4.68;;;;;;;;;;4899218;29;20033;-45
2022/12/31 08:55:13;;;;;;;10.88;5.50;;;;;;;;;;4899567;29;20051;-44
2022/12/31 08:57:51;;;;;;;10.40;5.40;;;;;;;;;;4898113;29;20462;-45
2022/12/31 09:00:18;;;;;;;11.57;5.00;;;;;;;;;;4903007;29;20510;-44
2022/12/31 09:03:01;;;;;;;12.70;5.38;;;;;;;;;;4895086;29;20044;-45
2022/12/31 09:06:04;;;;;;;8.55;5.30;;;;;;;;;;4925139;29;20413;-44
2022/12/31 09:08:32;;;;;;;9.52;5.15;;;;;;;;;;4923586;29;20498;-47
2022/12/31 09:11:31;;;;;;;10.15;5.07;;;;;;;;;;4926075;29;20036;-45
2022/12/31 09:14:24;;;;;;;7.55;5.30;;;;;;;;;;4944402;28;20105;-44
2022/12/31 09:16:55;;;;;;;7.40;4.88;;;;;;;;;;4987551;28;20121;-45
2022/12/31 09:19:20;;;;;;;9.23;5.55;;;;;;;;;;4988478;28;20401;-45
2022/12/31 09:21:46;;;;;;;10.95;5.00;;;;;;;;;;4988620;28;20038;-44
2022/12/31 09:24:13;;;;;;;10.68;5.47;;;;;;;;;;4989310;28;20031;-44
2022/12/31 09:27:04;;;;;;;10.75;5.55;;;;;;;;;;4988570;28;20552;-44
2022/12/31 09:29:29;;;;;;;12.73;4.72;;;;;;;;;;4985524;28;20101;-44
2022/12/31 09:32:17;;;;;;;12.00;4.85;;;;;;;;;;4987592;28;20506;-47
2022/12/31 09:34:56;;;;;;;8.65;4.60;;;;;;;;;;4985293;28;20506;-47
2022/12/31 09:37:45;;;;;;;8.35;4.70;;;;;;;;;;4988668;28;20038;-45
2022/12/31 09:40:28;;;;;;;9.75;4.78;;;;;;;;;;4987696;28;20076;-45
2022/12/31 09:43:03;;;;;;;8.60;4.38;;;;;;;;;;4985796;28;20092;-44
2022/12/31 09:45:47;;;;;;;7.32;4.63;;;;;;;;;;4988812;28;20506;-46
2022/12/31 09:48:34;;;;;;;5.60;4.57;;;;;;;;;;4987201;28;20096;-44
2022/12/31 09:51:08;;;;;;;7.53;4.70;;;;;;;;;;4986968;28;20113;-49
2022/12/31 09:54:06;;;;;;;9.02;4.85;;;;;;;;;;4989103;28;20034;-47
2022/12/31 09:56:42;;;;;;;7.70;4.40;;;;;;;;;;4986487;28;20042;-47
2022/12/31 09:59:45;;;;;;;11.27;4.45;;;;;;;;;;4984044;28;20031;-45
2022/12/31 10:02:54;;;;;;;9.13;4.57;;;;;;;;;;4987232;28;20074;-44
2022/12/31 10:05:37;;;;;;;6.45;4.57;;;;;;;;;;4987589;28;20467;-44
2022/12/31 10:08:21;;;;;;;11.07;4.85;;;;;;;;;;4984495;28;20142;-44
2022/12/31 10:10:57;;;;;;;7.93;4.10;;;;;;;;;;4988915;28;20132;-50
2022/12/31 10:13:41;;;;;;;13.10;4.75;;;;;;;;;;4988309;28;20038;-44
2022/12/31 10:16:30;;;;;;;10.85;5.07;;;;;;;;;;4988116;28;20498;-44
2022/12/31 10:19:34;;;;;;;7.88;4.60;;;;;;;;;;4988382;28;20050;-44
2022/12/31 10:22:11;;;;;;;13.20;4.72;;;;;;;;;;4986036;28;20388;-47
2022/12/31 10:24:36;;;;;;;7.75;4.78;;;;;;;;;;4987348;28;20031;-45
2022/12/31 10:27:13;;;;;;;9.18;4.90;;;;;;;;;;4987482;28;20100;-44
2022/12/31 10:30:02;;;;;;;8.45;4.43;;;;;;;;;;4986223;28;20058;-50
2022/12/31 10:32:36;;;;;;;12.07;4.47;;;;;;;;;;4984380;28;20046;-46
2022/12/31 10:35:13;;;;;;;13.10;5.18;;;;;;;;;;4988407;28;20512;-49
2022/12/31 10:37:39;;;;;;;10.45;5.05;;;;;;;;;;4984597;28;20516;-44
2022/12/31 10:40:23;;;;;;;7.60;4.68;;;;;;;;;;4989635;28;20091;-44
2022/12/31 10:42:57;;;;;;;11.13;5.40;;;;;;;;;;4986131;28;20046;-46
2022/12/31 10:45:32;;;;;;;13.40;5.32;;;;;;;;;;4987348;28;20030;-45
2022/12/31 10:48:16;;;;;;;13.30;5.40;;;;;;;;;;4986335;28;20718;-45
2022/12/31 10:50:47;;;;;;;9.93;5.22;;;;;;;;;;4987321;28;20068;-46
2022/12/31 10:53:16;;;;;;;12.05;5.07;;;;;;;;;;4985751;28;20498;-49
2022/12/31 10:56:08;;;;;;;9.93;6.20;;;;;;;;;;4987823;28;20050;-45
2022/12/31 10:59:11;;;;;;;14.80;5.38;;;;;;;;;;4987776;28;20039;-45
2022/12/31 11:01:58;;;;;;;12.35;5.68;;;;;;;;;;5002079;28;20060;-44
2022/12/31 11:04:48;;;;;;;11.10;5.75;;;;;;;;;;5005904;28;20056;-45
2022/12/31 11:07:25;;;;;;;13.65;5.35;;;;;;;;;;5003236;28;20537;-45
2022/12/31 11:10:23;;;;;;;11.80;5.97;;;;;;;;;;5004938;28;20434;-45
2022/12/31 11:13:21;;;;;;;11.30;4.80;;;;;;;;;;5004438;28;20519;-44
2022/12/31 11:16:09;;;;;;;9.27;4.60;;;;;;;;;;5004576;28;20104;-45
2022/12/31 11:18:56;;;;;;;14.07;5.72;;;;;;;;;;5004889;28;20065;-45
2022/12/31 11:21:51;;;;;;;12.77;5.25;;;;;;;;;;5004060;28;20077;-44
2022/12/31 11:25:04;;;;;;;10.07;5.13;;;;;;;;;;5003811;28;20431;-45
2022/12/31 11:27:56;;;;;;;8.40;5.22;;;;;;;;;;5002930;28;20042;-48
2022/12/31 11:30:46;;;;;;;15.80;7.50;;;;;;;;;;5004636;28;20060;-43
2022/12/31 11:33:31;;;;;;;10.27;5.70;;;;;;;;;;4997786;28;20033;-44
2022/12/31 11:36:07;;;;;;;15.13;5.93;;;;;;;;;;5004248;28;20029;-45
2022/12/31 11:39:02;;;;;;;14.35;6.47;;;;;;;;;;4994530;28;20792;-44
2022/12/31 11:41:38;;;;;;;8.57;5.30;;;;;;;;;;4987520;28;20075;-49
2022/12/31 11:44:40;;;;;;;13.80;5.70;;;;;;;;;;4985526;28;20126;-48
2022/12/31 11:47:15;;;;;;;7.93;5.22;;;;;;;;;;4985814;28;20035;-46
2022/12/31 11:49:59;;;;;;;10.90;4.75;;;;;;;;;;4984924;28;20105;-45
2022/12/31 11:52:47;;;;;;;10.38;4.40;;;;;;;;;;4986763;28;20081;-44
2022/12/31 11:55:21;;;;;;;13.02;4.50;;;;;;;;;;4989762;28;20022;-45
2022/12/31 11:57:51;;;;;;;10.93;5.07;;;;;;;;;;4991818;28;20064;-45
2022/12/31 12:00:24;;;;;;;9.27;4.30;;;;;;;;;;4988963;28;20030;-45
2022/12/31 12:02:54;;;;;;;10.02;4.55;;;;;;;;;;4988985;28;20510;-45
2022/12/31 12:05:22;;;;;;;10.52;4.25;;;;;;;;;;4992133;28;20160;-46
2022/12/31 12:07:49;;;;;;;10.40;4.88;;;;;;;;;;4989512;28;20054;-48
2022/12/31 12:10:23;;;;;;;10.95;4.72;;;;;;;;;;4989666;28;20042;-44
2022/12/31 12:12:50;;;;;;;6.60;3.70;;;;;;;;;;4990838;28;20041;-46
2022/12/31 12:15:25;;;;;;;8.95;4.45;;;;;;;;;;4989288;28;20026;-45
2022/12/31 12:17:52;;;;;;;11.82;4.35;;;;;;;;;;4986937;28;20125;-44
2022/12/31 12:20:26;;;;;;;13.10;4.80;;;;;;;;;;4990968;28;20026;-44
2022/12/31 12:22:55;;;;;;;14.07;4.68;;;;;;;;;;4988685;28;20038;-48
2022/12/31 12:25:24;;;;;;;13.40;5.05;;;;;;;;;;4989940;28;20120;-45
2022/12/31 12:27:50;;;;;;;8.45;4.13;;;;;;;;;;4990496;28;20038;-48
2022/12/31 12:30:22;;;;;;;12.10;4.55;;;;;;;;;;4989749;28;20034;-50
2022/12/31 12:33:03;;;;;;;7.82;4.18;;;;;;;;;;4990030;28;20038;-45
2022/12/31 12:35:34;;;;;;;12.38;4.68;;;;;;;;;;4989259;28;20042;-45
2022/12/31 12:38:05;;;;;;;10.35;4.63;;;;;;;;;;4988657;28;20034;-45
2022/12/31 12:40:33;;;;;;;16.02;3.90;;;;;;;;;;4986766;28;20121;-46
2022/12/31 12:42:59;;;;;;;10.88;4.03;;;;;;;;;;4990526;28;20454;-47
2022/12/31 12:45:39;;;;;;;8.05;4.00;;;;;;;;;;4990216;28;20026;-45
2022/12/31 12:48:15;;;;;;;10.80;4.38;;;;;;;;;;4986734;28;20541;-44
2022/12/31 12:50:45;;;;;;;6.88;4.00;;;;;;;;;;4990233;28;20093;-44
2022/12/31 12:53:57;;;;;;;10.90;4.18;;;;;;;;;;4989144;28;20042;-48
2022/12/31 12:56:23;;;;;;;8.82;4.18;;;;;;;;;;4967153;28;20061;-45
2022/12/31 12:59:23;;;;;;;9.57;4.22;;;;;;;;;;4987107;28;20511;-48
2022/12/31 13:02:25;;;;;;;14.73;4.40;;;;;;;;;;4985253;28;20034;-45
2022/12/31 13:05:12;;;;;;;9.65;3.95;;;;;;;;;;4979074;28;20054;-45
2022/12/31 13:07:57;;;;;;;10.07;4.13;;;;;;;;;;4985434;28;20069;-45
2022/12/31 13:10:50;;;;;;;6.07;3.38;;;;;;;;;;4988703;28;20062;-46
2022/12/31 13:13:22;;;;;;;11.98;3.67;;;;;;;;;;4986580;28;20527;-45
2022/12/31 13:15:59;;;;;;;;;;;;;;;;;;4985964;28;20022;-43
2022/12/31 13:19:00;;;;;;;8.27;3.28;;;;;;;;;;4987009;28;20438;-45
2022/12/31 13:21:36;;;;;;;10.20;4.05;;;;;;;;;;4929805;29;20083;-45
2022/12/31 13:24:23;;;;;;;9.60;3.80;;;;;;;;;;4929194;29;20051;-46
2022/12/31 13:27:08;;;;;;;8.20;4.00;;;;;;;;;;4929765;28;20047;-45
2022/12/31 13:29:35;;;;;;;10.07;3.80;;;;;;;;;;4931156;29;20118;-46
2022/12/31 13:32:04;;;;;;;12.80;3.67;;;;;;;;;;4947583;28;20039;-46
2022/12/31 13:34:33;;;;;;;9.85;2.90;;;;;;;;;;4948471;28;20039;-48
2022/12/31 13:37:04;;;;;;;8.23;3.10;;;;;;;;;;4949220;28;20086;-45
2022/12/31 13:39:36;;;;;;;9.27;3.30;;;;;;;;;;4949101;28;20083;-45
2022/12/31 13:42:06;;;;;;;14.70;3.22;;;;;;;;;;4947745;28;20047;-46
2022/12/31 13:44:39;;;;;;;8.93;2.90;;;;;;;;;;4947582;29;20085;-45
2022/12/31 13:47:22;;;;;;;9.63;2.95;;;;;;;;;;4947913;28;20047;-45
2022/12/31 13:49:55;;;;;;;10.20;2.38;;;;;;;;;;4948169;28;20035;-45
2022/12/31 13:52:29;;;;;;;8.30;3.10;;;;;;;;;;4947251;28;20047;-44
2022/12/31 13:55:03;;;;;;;7.97;3.28;;;;;;;;;;4948917;29;20043;-50
2022/12/31 13:57:56;;;;;;;10.55;3.53;;;;;;;;;;4957957;28;20558;-48
2022/12/31 14:00:25;;;;;;;13.77;2.88;;;;;;;;;;4986731;28;20364;-43
2022/12/31 14:03:12;;;;;;;11.15;3.03;;;;;;;;;;4987263;28;20542;-48
2022/12/31 14:06:08;;;;;;;10.48;2.90;;;;;;;;;;4986989;28;20039;-45
2022/12/31 14:08:33;;;;;;;11.65;4.07;;;;;;;;;;4982327;28;20042;-45
2022/12/31 14:11:05;;;;;;;8.75;4.00;;;;;;;;;;4988063;28;20529;-45
2022/12/31 14:14:04;;;;;;;10.88;3.83;;;;;;;;;;4986940;28;20038;-47
2022/12/31 14:16:42;;;;;;;7.10;3.60;;;;;;;;;;4981807;28;20050;-43
2022/12/31 14:19:41;;;;;;;8.15;2.83;;;;;;;;;;4980857;28;20045;-46
2022/12/31 14:22:37;;;;;;;10.50;4.25;;;;;;;;;;4978673;28;20438;-46
2022/12/31 14:25:21;;;;;;;7.75;3.90;;;;;;;;;;4979251;28;20170;-43
2022/12/31 14:27:48;;;;;;;11.70;4.07;;;;;;;;;;4981289;28;20570;-44
2022/12/31 14:30:19;;;;;;;17.35;5.15;;;;;;;;;;4978798;28;20438;-46
2022/12/31 14:32:59;;;;;;;10.65;4.38;;;;;;;;;;4978361;28;20047;-46
2022/12/31 14:35:43;;;;;;;11.40;4.25;;;;;;;;;;4977418;28;20180;-45
2022/12/31 14:38:17;;;;;;;13.02;4.07;;;;;;;;;;4977290;28;20030;-45
2022/12/31 14:40:47;;;;;;;13.30;5.63;;;;;;;;;;4973677;28;20201;-45
2022/12/31 14:43:34;;;;;;;16.35;5.80;;;;;;;;;;4977501;28;20042;-46
2022/12/31 14:46:33;;;;;;;19.02;9.30;;;;;;;;;;4981730;28;20113;-47
2022/12/31 14:49:21;;;;;;;14.13;5.20;;;;;;;;;;4982973;28;20354;-49
2022/12/31 14:51:46;;;;;;;12.95;5.75;;;;;;;;;;4979716;28;20039;-46
2022/12/31 14:54:36;;;;;;;22.60;10.63;;;;;;;;;;4984446;28;20034;-44
2022/12/31 14:57:34;;;;;;;12.38;5.45;;;;;;;;;;4986782;28;20060;-45
2022/12/31 15:00:21;;;;;;;20.30;9.52;;;;;;;;;;4971674;28;20113;-45
2022/12/31 15:02:52;;;;;;;18.17;7.05;;;;;;;;;;4983672;28;20061;-48
2022/12/31 15:05:21;;;;;;;12.80;5.05;;;;;;;;;;4985423;28;20029;-45
2022/12/31 15:07:46;;;;;;;9.50;4.65;;;;;;;;;;4986523;28;20116;-46
2022/12/31 15:10:24;;;;;;;13.82;4.20;;;;;;;;;;4987344;28;20466;-46
2022/12/31 15:13:00;;;;;;;8.35;3.80;;;;;;;;;;4985117;28;20096;-45
2022/12/31 15:15:41;;;;;;;11.88;4.57;;;;;;;;;;4987930;28;20034;-48
2022/12/31 15:18:38;;;;;;;10.63;4.30;;;;;;;;;;4984527;28;20782;-46
2022/12/31 15:21:33;;;;;;;11.85;5.22;;;;;;;;;;4986533;28;20030;-47
2022/12/31 15:23:59;;;;;;;9.98;4.75;;;;;;;;;;4986100;28;20129;-46
2022/12/31 15:26:30;;;;;;;12.35;5.30;;;;;;;;;;4986840;28;20121;-50
2022/12/31 15:28:59;;;;;;;12.32;5.00;;;;;;;;;;4970071;28;20051;-46
2022/12/31 15:31:25;;;;;;;11.70;5.30;;;;;;;;;;4970949;28;20696;-44